Time;durP1;ratioP1;P1;durP2;ratioP2;P2;SDS_P1;SDS_P2;PMS_P1;PMS_P2;Temp;Humidity;BMP_temperature;BMP_pressure;BME280_temperature;BME280_humidity;BME280_pressure;Samples;Min_cycle;Max_cycle;Signal;HPM_P1;HPM_P2
2021/05/11 00:00:00;;;;;;;2.60;2.17;;;17.60;93.20;;;;;;5064422;28;20217;-68
2021/05/11 00:02:27;;;;;;;2.40;2.20;;;17.50;93.40;;;;;;5069522;28;20201;-68
2021/05/11 00:04:54;;;;;;;4.33;2.60;;;17.50;93.50;;;;;;5069186;28;20193;-68
2021/05/11 00:07:20;;;;;;;3.07;2.43;;;17.50;93.80;;;;;;5069922;28;20218;-68
2021/05/11 00:09:47;;;;;;;2.27;2.07;;;17.50;94.00;;;;;;5064336;28;20284;-68
2021/05/11 00:12:13;;;;;;;2.23;2.03;;;17.40;94.20;;;;;;5071718;28;20336;-68
2021/05/11 00:14:40;;;;;;;2.40;2.20;;;17.40;94.40;;;;;;5070597;28;20569;-68
2021/05/11 00:17:07;;;;;;;2.60;2.03;;;17.40;94.60;;;;;;5069779;28;20228;-68
2021/05/11 00:19:35;;;;;;;2.40;2.20;;;17.30;94.80;;;;;;5072056;28;20212;-68
2021/05/11 00:22:01;;;;;;;3.97;2.60;;;17.30;95.00;;;;;;5070753;28;20205;-68
2021/05/11 00:24:28;;;;;;;5.27;2.47;;;17.30;95.20;;;;;;5070950;28;20198;-68
2021/05/11 00:26:55;;;;;;;3.37;2.77;;;17.20;95.30;;;;;;5070679;28;20247;-68
2021/05/11 00:29:21;;;;;;;4.00;2.90;;;17.10;95.50;;;;;;5066584;28;20205;-68
2021/05/11 00:31:48;;;;;;;3.47;2.70;;;17.20;95.60;;;;;;5070191;28;20194;-68
2021/05/11 00:34:15;;;;;;;3.63;3.10;;;17.20;95.80;;;;;;5067441;28;20236;-68
2021/05/11 00:36:41;;;;;;;3.33;2.63;;;17.10;96.00;;;;;;5070567;28;20276;-68
2021/05/11 00:39:08;;;;;;;2.87;2.57;;;17.10;96.20;;;;;;5062154;28;20232;-68
2021/05/11 00:41:34;;;;;;;4.80;2.90;;;17.00;96.30;;;;;;5069501;28;20312;-68
2021/05/11 00:44:01;;;;;;;3.30;2.90;;;17.00;96.60;;;;;;5068329;28;20317;-68
2021/05/11 00:46:29;;;;;;;3.20;2.90;;;17.00;96.80;;;;;;5066831;28;20193;-68
2021/05/11 00:48:56;;;;;;;5.50;2.90;;;17.00;96.90;;;;;;5070603;28;20334;-68
2021/05/11 00:51:23;;;;;;;3.60;2.63;;;16.90;97.10;;;;;;5069595;28;20296;-68
2021/05/11 00:53:50;;;;;;;2.90;2.60;;;16.90;97.30;;;;;;5068133;28;21090;-68
2021/05/11 00:56:20;;;;;;;4.67;2.90;;;16.90;97.80;;;;;;5071154;28;20343;-68
2021/05/11 00:58:47;;;;;;;3.23;2.80;;;16.90;97.60;;;;;;5069591;28;20197;-68
2021/05/11 01:01:13;;;;;;;3.43;2.80;;;16.90;97.70;;;;;;5069368;28;20193;-68
2021/05/11 01:03:40;;;;;;;5.63;3.10;;;16.90;97.90;;;;;;5070330;28;20197;-68
2021/05/11 01:06:07;;;;;;;4.67;3.03;;;16.80;98.00;;;;;;5065019;28;20197;-68
2021/05/11 01:08:35;;;;;;;4.70;3.23;;;16.80;98.10;;;;;;5063005;28;20211;-68
2021/05/11 01:11:01;;;;;;;3.00;2.70;;;16.80;98.20;;;;;;5070186;28;20201;-68
2021/05/11 01:13:28;;;;;;;4.13;2.93;;;16.80;98.40;;;;;;5069008;28;20197;-68
2021/05/11 01:15:54;;;;;;;4.87;2.70;;;16.70;98.50;;;;;;5067108;28;20201;-68
2021/05/11 01:18:30;;;;;;;3.40;2.80;;;16.70;98.60;;;;;;5100175;28;20208;-68
2021/05/11 01:21:01;;;;;;;3.83;3.07;;;16.70;98.70;;;;;;5069630;28;20533;-68
2021/05/11 01:26:25;;;;;;;2.73;2.40;;;16.60;99.00;;;;;;5029214;28;20311;-68
2021/05/11 01:28:58;;;;;;;3.00;2.60;;;16.60;99.20;;;;;;5024000;28;20633;-68
2021/05/11 01:48:06;;;;;;;2.80;2.30;;;16.40;99.80;;;;;;4969298;28;20258;-68
2021/05/11 01:50:36;;;;;;;4.80;2.67;;;16.40;99.90;;;;;;4987170;28;20390;-68
2021/05/11 01:53:12;;;;;;;3.43;2.80;;;16.30;99.90;;;;;;4972333;28;20210;-68
2021/05/11 01:58:54;;;;;;;3.03;2.50;;;16.30;99.90;;;;;;4931473;28;20205;-68
2021/05/11 02:22:35;;;;;;;2.40;2.00;;;16.10;99.90;;;;;;4971360;28;20211;-68
2021/05/11 02:23:58;;;;;;;3.17;2.67;;;16.10;99.90;;;;;;4987202;28;20747;-68
2021/05/11 02:26:25;;;;;;;2.70;2.20;;;16.10;99.90;;;;;;4985390;28;20235;-68
2021/05/11 02:28:52;;;;;;;3.73;3.00;;;16.00;99.90;;;;;;4986936;28;20251;-68
2021/05/11 02:31:18;;;;;;;4.73;3.40;;;15.90;99.90;;;;;;4989683;28;20244;-69
2021/05/11 02:33:45;;;;;;;6.50;3.27;;;15.90;99.90;;;;;;5041393;28;20256;-68
2021/05/11 02:36:11;;;;;;;3.70;3.13;;;15.90;99.90;;;;;;5044133;28;20218;-68
2021/05/11 02:38:38;;;;;;;3.97;3.20;;;15.80;99.90;;;;;;5063385;28;20182;-68
2021/05/11 02:41:04;;;;;;;3.50;3.07;;;15.80;99.90;;;;;;5045724;28;20288;-69
2021/05/11 02:43:34;;;;;;;4.40;2.97;;;15.70;99.90;;;;;;5064562;28;20224;-68
2021/05/11 02:46:01;;;;;;;4.87;2.80;;;15.70;99.90;;;;;;5067031;28;20201;-68
2021/05/11 02:48:28;;;;;;;3.03;2.43;;;15.70;99.90;;;;;;5066877;28;20504;-68
2021/05/11 02:50:54;;;;;;;2.20;2.10;;;15.70;99.90;;;;;;5067149;28;20250;-68
2021/05/11 02:53:21;;;;;;;3.10;2.27;;;15.70;99.90;;;;;;5067035;28;20211;-68
2021/05/11 02:55:47;;;;;;;4.33;2.70;;;15.70;99.90;;;;;;5069291;28;20210;-68
2021/05/11 02:58:14;;;;;;;2.93;2.60;;;15.70;99.90;;;;;;5068724;28;20272;-68
2021/05/11 03:00:42;;;;;;;3.63;2.50;;;15.70;99.90;;;;;;5065525;28;20212;-68
2021/05/11 03:03:10;;;;;;;2.90;2.60;;;15.70;99.90;;;;;;5067557;28;20196;-68
2021/05/11 03:05:36;;;;;;;4.60;2.53;;;15.70;99.90;;;;;;5067321;28;20200;-68
2021/05/11 03:08:03;;;;;;;2.07;1.93;;;15.70;99.90;;;;;;5068263;28;20216;-67
2021/05/11 03:10:30;;;;;;;2.43;2.23;;;15.70;99.90;;;;;;5064387;28;20254;-67
2021/05/11 03:12:59;;;;;;;3.00;2.10;;;15.70;99.90;;;;;;5066577;28;20235;-67
2021/05/11 03:15:26;;;;;;;3.07;2.40;;;15.70;99.90;;;;;;5066582;28;21091;-68
2021/05/11 03:17:52;;;;;;;2.37;2.17;;;15.70;99.90;;;;;;5072794;28;20322;-67
2021/05/11 03:20:20;;;;;;;2.77;2.57;;;15.70;99.90;;;;;;5071433;28;20660;-67
2021/05/11 03:22:46;;;;;;;3.83;2.57;;;15.60;99.90;;;;;;5073318;28;20265;-67
2021/05/11 03:25:13;;;;;;;2.60;2.33;;;15.60;99.90;;;;;;5068283;28;20318;-67
2021/05/11 03:27:40;;;;;;;2.43;2.23;;;15.60;99.90;;;;;;5073361;28;20304;-67
2021/05/11 03:30:07;;;;;;;4.23;2.30;;;15.50;99.90;;;;;;5069008;28;20201;-67
2021/05/11 03:32:34;;;;;;;3.50;2.90;;;15.50;99.90;;;;;;5072079;28;20725;-68
2021/05/11 03:35:00;;;;;;;2.93;2.70;;;15.50;99.90;;;;;;5071448;28;20266;-68
2021/05/11 03:37:28;;;;;;;5.10;2.53;;;15.40;99.90;;;;;;5072175;28;20196;-67
2021/05/11 03:39:54;;;;;;;2.30;2.10;;;15.40;99.90;;;;;;5063208;28;20297;-67
2021/05/11 03:42:24;;;;;;;2.23;2.00;;;15.40;99.90;;;;;;5100987;27;20209;-67
2021/05/11 03:44:54;;;;;;;2.13;2.03;;;15.40;99.90;;;;;;5066965;28;20240;-67
2021/05/11 03:47:22;;;;;;;2.07;1.90;;;15.40;99.90;;;;;;5060545;28;20224;-68
2021/05/11 03:49:49;;;;;;;1.77;1.67;;;15.40;99.90;;;;;;5067385;28;20912;-68
2021/05/11 03:52:16;;;;;;;1.70;1.60;;;15.50;99.90;;;;;;5092874;27;20292;-68
2021/05/11 03:54:43;;;;;;;1.87;1.67;;;15.50;99.90;;;;;;5071690;28;20273;-68
2021/05/11 03:57:10;;;;;;;4.23;1.70;;;15.60;99.90;;;;;;5077252;28;20529;-68
2021/05/11 03:59:36;;;;;;;2.30;2.10;;;15.60;99.90;;;;;;5070715;28;20208;-68
2021/05/11 04:02:03;;;;;;;2.03;1.83;;;15.60;99.90;;;;;;5068352;28;20314;-68
2021/05/11 04:04:29;;;;;;;2.90;2.10;;;15.60;99.90;;;;;;5070564;28;20622;-68
2021/05/11 04:06:56;;;;;;;3.23;2.33;;;15.70;99.90;;;;;;5070830;28;20200;-68
2021/05/11 04:09:27;;;;;;;3.30;1.80;;;15.70;99.90;;;;;;5070506;28;20196;-68
2021/05/11 04:17:31;;;;;;;2.00;1.90;;;15.80;99.90;;;;;;5070360;28;20205;-68
2021/05/11 04:19:57;;;;;;;2.03;1.90;;;15.80;99.90;;;;;;5070311;28;20677;-68
2021/05/11 04:22:24;;;;;;;2.10;1.77;;;15.80;99.90;;;;;;5071398;28;20342;-68
2021/05/11 04:24:51;;;;;;;1.70;1.60;;;15.80;99.90;;;;;;5067152;28;20452;-68
2021/05/11 04:27:18;;;;;;;1.97;1.87;;;15.90;99.90;;;;;;5063258;28;20692;-68
2021/05/11 04:29:47;;;;;;;3.03;1.60;;;15.90;99.90;;;;;;5065371;28;20228;-68
2021/05/11 04:32:14;;;;;;;1.60;1.50;;;15.90;99.90;;;;;;5084156;28;20212;-68
2021/05/11 04:34:40;;;;;;;1.80;1.70;;;16.00;99.90;;;;;;5066394;28;20331;-68
2021/05/11 04:37:07;;;;;;;1.70;1.60;;;16.00;99.90;;;;;;5064541;28;20199;-68
2021/05/11 04:39:33;;;;;;;2.37;2.10;;;16.00;99.90;;;;;;5068196;28;20201;-68
2021/05/11 04:42:00;;;;;;;1.90;1.80;;;16.00;99.90;;;;;;5068483;28;20238;-68
2021/05/11 04:44:31;;;;;;;2.10;1.90;;;16.10;99.90;;;;;;5067518;28;20315;-68
2021/05/11 04:47:01;;;;;;;2.27;2.07;;;16.20;99.90;;;;;;5065225;28;20196;-68
2021/05/11 04:49:28;;;;;;;2.10;1.90;;;16.20;99.90;;;;;;5068886;28;20669;-68
2021/05/11 04:51:54;;;;;;;2.60;2.40;;;16.30;99.90;;;;;;5067466;28;20233;-67
2021/05/11 04:54:21;;;;;;;2.60;2.40;;;16.30;99.90;;;;;;5069936;28;20201;-68
2021/05/11 04:56:47;;;;;;;2.40;2.20;;;16.40;99.90;;;;;;5070037;28;20286;-68
2021/05/11 04:59:14;;;;;;;4.77;2.70;;;16.40;99.90;;;;;;5068289;28;20669;-68
2021/05/11 05:01:43;;;;;;;5.97;2.40;;;16.40;99.90;;;;;;5066022;28;20284;-68
2021/05/11 05:04:11;;;;;;;3.73;2.50;;;16.40;99.90;;;;;;5068420;28;20236;-68
2021/05/11 05:06:37;;;;;;;4.20;2.80;;;16.50;99.90;;;;;;5070198;28;20197;-68
2021/05/11 05:09:05;;;;;;;4.13;2.70;;;16.60;99.90;;;;;;5072467;28;20217;-68
2021/05/11 05:11:31;;;;;;;2.40;2.20;;;16.60;99.90;;;;;;5069131;28;20201;-68
2021/05/11 05:13:59;;;;;;;3.93;2.93;;;16.60;99.90;;;;;;5069746;28;20204;-68
2021/05/11 05:16:26;;;;;;;2.63;2.43;;;16.60;99.90;;;;;;5067719;28;20210;-67
2021/05/11 05:18:53;;;;;;;3.40;2.60;;;16.70;99.90;;;;;;5064996;28;20298;-68
2021/05/11 05:21:20;;;;;;;3.20;2.43;;;16.80;99.90;;;;;;5062889;28;20733;-67
2021/05/11 05:23:48;;;;;;;5.53;2.00;;;16.90;99.90;;;;;;5065679;28;20640;-68
2021/05/11 05:26:17;;;;;;;3.07;2.60;;;16.90;99.90;;;;;;5066681;28;20280;-68
2021/05/11 05:28:44;;;;;;;2.63;2.43;;;17.10;99.90;;;;;;5065513;28;20953;-68
2021/05/11 05:31:10;;;;;;;3.33;2.83;;;17.20;99.90;;;;;;5060244;28;20193;-68
2021/05/11 05:33:39;;;;;;;3.33;3.03;;;17.30;99.90;;;;;;5063440;28;20204;-68
2021/05/11 05:36:07;;;;;;;3.67;2.97;;;17.40;99.90;;;;;;5061677;28;20669;-68
2021/05/11 05:38:35;;;;;;;5.07;2.70;;;17.70;99.90;;;;;;5068550;28;20721;-68
2021/05/11 05:41:05;;;;;;;3.73;2.73;;;18.40;99.90;;;;;;5071020;28;20224;-68
2021/05/11 05:43:32;;;;;;;2.70;2.47;;;19.40;99.80;;;;;;5062381;28;20613;-68
2021/05/11 05:45:58;;;;;;;2.77;2.57;;;20.20;98.00;;;;;;5057812;28;20213;-68
2021/05/11 05:48:24;;;;;;;2.05;1.92;;;20.80;96.60;;;;;;5063567;28;20308;-68
2021/05/11 05:50:54;;;;;;;2.30;2.20;;;21.70;94.80;;;;;;5064046;28;20201;-68
2021/05/11 05:53:25;;;;;;;2.90;2.20;;;22.80;92.50;;;;;;5059304;28;20193;-68
2021/05/11 05:55:51;;;;;;;5.93;2.05;;;24.30;87.20;;;;;;5062493;28;20712;-68
2021/05/11 05:58:18;;;;;;;2.13;1.92;;;25.80;79.70;;;;;;5084521;28;20240;-68
2021/05/11 06:00:46;;;;;;;2.30;2.00;;;27.10;73.00;;;;;;5063985;28;20209;-68
2021/05/11 06:03:31;;;;;;;2.42;2.22;;;28.40;66.60;;;;;;5066022;28;20193;-69
2021/05/11 06:05:57;;;;;;;2.67;2.33;;;29.30;61.90;;;;;;5064971;28;20610;-68
2021/05/11 06:08:25;;;;;;;3.70;2.13;;;30.40;58.00;;;;;;5069526;28;20809;-68
2021/05/11 06:10:56;;;;;;;3.88;2.30;;;31.50;55.10;;;;;;5064762;28;20226;-68
2021/05/11 06:13:28;;;;;;;2.40;2.20;;;32.50;51.60;;;;;;5067889;28;20189;-68
2021/05/11 06:18:39;;;;;;;2.58;2.38;;;34.10;47.40;;;;;;5065327;28;20275;-69
2021/05/11 06:21:06;;;;;;;2.10;2.00;;;35.10;45.40;;;;;;5063985;28;20255;-69
2021/05/11 06:23:33;;;;;;;2.08;1.92;;;36.10;43.10;;;;;;5064204;28;20289;-68
2021/05/11 06:26:00;;;;;;;3.22;2.10;;;37.50;41.50;;;;;;5062846;28;20246;-68
2021/05/11 06:28:26;;;;;;;2.20;2.10;;;39.00;39.30;;;;;;5065000;28;20657;-68
2021/05/11 06:30:53;;;;;;;2.33;2.13;;;40.20;37.50;;;;;;5062249;28;20298;-68
2021/05/11 06:33:19;;;;;;;3.78;2.38;;;41.50;35.80;;;;;;5066878;28;20204;-68
2021/05/11 06:35:48;;;;;;;2.13;2.03;;;42.50;34.90;;;;;;5062666;28;20197;-68
2021/05/11 06:38:15;;;;;;;3.00;2.58;;;43.50;32.70;;;;;;5068237;28;20197;-69
2021/05/11 06:40:42;;;;;;;2.83;2.63;;;44.30;31.40;;;;;;5068564;28;20272;-68
2021/05/11 06:43:09;;;;;;;2.88;2.67;;;44.90;30.10;;;;;;5068191;28;20273;-68
2021/05/11 06:48:22;;;;;;;2.97;2.85;;;45.70;28.60;;;;;;5067221;28;20228;-69
2021/05/11 06:53:36;;;;;;;2.97;2.78;;;46.40;28.00;;;;;;5067743;28;20215;-68
2021/05/11 06:56:06;;;;;;;3.85;3.00;;;46.80;27.60;;;;;;5066621;28;20196;-68
2021/05/11 06:58:32;;;;;;;3.20;3.00;;;46.90;27.10;;;;;;5066003;28;20203;-68
2021/05/11 07:00:59;;;;;;;3.33;3.13;;;46.50;26.50;;;;;;5062699;28;20625;-68
2021/05/11 07:03:25;;;;;;;5.05;3.20;;;46.00;26.60;;;;;;5064084;28;20203;-68
2021/05/11 07:05:53;;;;;;;3.80;3.10;;;45.60;26.60;;;;;;5063604;28;20478;-68
2021/05/11 07:08:26;;;;;;;2.83;2.72;;;45.40;26.70;;;;;;5068290;28;20310;-69
2021/05/11 07:10:55;;;;;;;2.70;2.60;;;45.20;26.70;;;;;;5057180;28;20257;-68
2021/05/11 07:13:22;;;;;;;3.55;3.25;;;45.10;26.60;;;;;;5055231;28;20200;-68
2021/05/11 07:15:49;;;;;;;3.20;3.00;;;44.80;26.40;;;;;;5056934;28;20209;-68
2021/05/11 07:18:17;;;;;;;4.20;3.35;;;44.40;26.60;;;;;;5062457;28;20210;-69
2021/05/11 07:20:47;;;;;;;3.58;2.95;;;44.40;26.90;;;;;;5055452;28;20236;-68
2021/05/11 07:23:17;;;;;;;3.20;3.00;;;44.20;26.80;;;;;;5060925;28;20256;-68
2021/05/11 07:25:50;;;;;;;3.30;3.10;;;44.00;26.90;;;;;;5058052;28;20203;-68
2021/05/11 07:31:09;;;;;;;3.30;3.10;;;42.80;27.20;;;;;;5051713;28;20572;-68
2021/05/11 07:33:37;;;;;;;3.45;3.08;;;41.80;27.70;;;;;;5061161;28;20277;-72
2021/05/11 07:36:05;;;;;;;4.38;3.05;;;40.50;28.30;;;;;;5064326;28;20288;-72
2021/05/11 07:38:31;;;;;;;3.03;2.80;;;38.80;29.10;;;;;;5062309;28;20281;-72
2021/05/11 07:40:58;;;;;;;3.10;2.90;;;37.30;30.10;;;;;;5054487;28;20656;-72
2021/05/11 07:43:27;;;;;;;3.05;2.85;;;36.20;31.90;;;;;;5066621;28;20699;-72
2021/05/11 07:46:18;;;;;;;3.15;2.88;;;35.20;32.30;;;;;;5061522;28;20605;-73
2021/05/11 07:52:06;;;;;;;3.03;2.72;;;33.50;34.10;;;;;;5058523;28;20565;-74
2021/05/11 08:05:39;;;;;;;4.38;3.03;;;31.20;37.30;;;;;;5058231;28;20209;-73
2021/05/11 08:14:26;;;;;;;2.30;2.20;;;30.90;38.00;;;;;;5061574;28;20932;-73
2021/05/11 08:16:34;;;;;;;4.07;3.00;;;31.10;38.20;;;;;;5058142;28;20193;-72
2021/05/11 08:19:06;;;;;;;3.55;2.78;;;31.10;38.20;;;;;;5069432;28;20526;-72
2021/05/11 08:27:36;;;;;;;2.70;2.50;;;30.80;38.50;;;;;;5000331;28;20222;-73
2021/05/11 08:30:03;;;;;;;3.05;2.80;;;30.80;38.80;;;;;;4992541;28;20737;-72
2021/05/11 08:32:31;;;;;;;2.80;2.50;;;30.70;38.90;;;;;;4980489;28;20553;-72
2021/05/11 08:34:57;;;;;;;2.60;2.40;;;30.70;39.00;;;;;;4997619;28;20913;-70
2021/05/11 08:37:24;;;;;;;3.03;2.40;;;30.60;39.30;;;;;;5000652;28;20319;-71
2021/05/11 08:39:52;;;;;;;5.18;2.88;;;30.70;39.30;;;;;;4980302;28;20599;-71
2021/05/11 08:42:19;;;;;;;2.65;2.45;;;30.80;39.20;;;;;;4984318;28;20198;-69
2021/05/11 08:44:45;;;;;;;3.70;2.47;;;30.90;39.10;;;;;;4998421;28;20695;-69
2021/05/11 08:47:12;;;;;;;2.90;2.53;;;31.00;39.20;;;;;;4998946;28;20206;-69
2021/05/11 08:49:40;;;;;;;4.28;2.70;;;31.10;39.10;;;;;;4996037;28;20944;-69
2021/05/11 08:52:16;;;;;;;5.20;2.50;;;31.10;39.20;;;;;;4983494;28;20242;-69
2021/05/11 08:55:01;;;;;;;3.85;2.58;;;31.10;39.30;;;;;;5006352;28;20532;-71
2021/05/11 09:25:28;;;;;;;3.78;2.35;;;30.90;41.80;;;;;;4868500;29;20205;-73
2021/05/11 09:27:59;;;;;;;3.15;2.70;;;31.20;41.60;;;;;;4872493;29;20247;-66
2021/05/11 09:30:45;;;;;;;4.28;2.60;;;31.60;41.20;;;;;;4888359;29;20763;-72
2021/05/11 09:33:23;;;;;;;4.13;2.80;;;32.20;40.40;;;;;;4887022;29;20225;-71
2021/05/11 10:48:18;;;;;;;2.80;2.65;;;46.40;24.80;;;;;;4943651;28;20393;-76
2021/05/11 10:50:47;;;;;;;3.28;2.97;;;46.40;24.90;;;;;;4941063;28;20216;-67
2021/05/11 10:53:40;;;;;;;5.80;3.13;;;46.50;24.50;;;;;;4941486;28;20451;-69
2021/05/11 10:56:57;;;;;;;3.85;3.20;;;46.10;24.20;;;;;;4940138;28;20534;-69
2021/05/11 11:05:39;;;;;;;7.05;3.03;;;45.70;24.10;;;;;;4943183;28;20211;-69
2021/05/11 11:08:30;;;;;;;3.80;3.10;;;45.20;23.90;;;;;;4928182;29;20348;-69
2021/05/11 11:11:12;;;;;;;3.80;3.13;;;44.90;24.20;;;;;;4942096;28;20236;-69
2021/05/11 11:13:40;;;;;;;5.53;3.10;;;44.60;24.30;;;;;;4926679;29;20215;-69
2021/05/11 11:16:07;;;;;;;3.90;3.13;;;44.40;24.20;;;;;;4944199;28;20205;-70
2021/05/11 11:18:34;;;;;;;3.78;2.90;;;44.00;24.40;;;;;;4942963;28;20196;-71
2021/05/11 11:21:19;;;;;;;3.22;2.92;;;43.60;24.70;;;;;;4950574;28;20222;-70
2021/05/11 11:23:48;;;;;;;4.70;3.38;;;43.30;24.80;;;;;;5059329;28;20624;-75
2021/05/11 11:26:22;;;;;;;4.15;3.05;;;42.90;24.50;;;;;;5056862;28;20680;-75
2021/05/11 11:28:49;;;;;;;3.53;2.83;;;42.40;24.50;;;;;;5059610;28;20355;-76
2021/05/11 11:31:23;;;;;;;2.83;2.63;;;42.00;25.10;;;;;;5060006;28;20201;-75
2021/05/11 11:33:51;;;;;;;4.20;2.92;;;41.70;25.50;;;;;;5060138;28;20200;-74
2021/05/11 11:36:31;;;;;;;2.55;2.45;;;41.50;25.50;;;;;;5097190;28;20269;-77
2021/05/11 11:38:59;;;;;;;3.75;3.00;;;41.40;25.50;;;;;;5065313;28;20203;-73
2021/05/11 11:41:26;;;;;;;4.25;2.80;;;41.10;25.30;;;;;;5063000;28;20196;-77
2021/05/11 11:43:53;;;;;;;7.90;2.80;;;40.80;25.50;;;;;;5061529;28;20745;-73
2021/05/11 11:46:28;;;;;;;4.50;2.67;;;40.50;25.60;;;;;;5059543;28;20322;-71
2021/05/11 11:49:01;;;;;;;4.43;3.20;;;40.10;25.90;;;;;;5064473;28;20212;-69
2021/05/11 11:51:30;;;;;;;3.17;2.97;;;39.90;26.10;;;;;;5059742;28;20438;-67
2021/05/11 11:54:12;;;;;;;4.45;2.80;;;39.70;26.40;;;;;;5061812;28;20208;-69
2021/05/11 11:59:23;;;;;;;3.42;3.13;;;39.40;26.80;;;;;;5061915;28;20188;-69
2021/05/11 12:02:01;;;;;;;3.90;2.95;;;39.20;26.80;;;;;;5064739;28;20189;-69
2021/05/11 12:04:29;;;;;;;5.28;2.80;;;39.00;27.00;;;;;;5064516;28;20204;-69
2021/05/11 12:07:02;;;;;;;2.53;2.42;;;38.80;27.20;;;;;;5065194;28;20759;-71
2021/05/11 12:09:29;;;;;;;3.95;2.53;;;39.00;27.80;;;;;;5063665;28;20221;-70
2021/05/11 12:11:55;;;;;;;2.80;2.60;;;38.70;27.20;;;;;;5063082;28;20205;-71
2021/05/11 12:14:22;;;;;;;8.48;2.70;;;38.60;27.30;;;;;;5065751;28;20193;-70
2021/05/11 12:16:49;;;;;;;3.10;2.90;;;38.50;27.10;;;;;;5091486;27;20201;-70
2021/05/11 12:19:17;;;;;;;5.28;2.90;;;38.10;27.20;;;;;;5064361;28;20188;-71
2021/05/11 12:21:54;;;;;;;4.03;3.00;;;37.70;27.70;;;;;;5062333;28;20204;-70
2021/05/11 12:24:23;;;;;;;2.65;2.20;;;37.00;28.20;;;;;;5065517;28;20231;-71
2021/05/11 12:26:50;;;;;;;4.25;2.50;;;36.40;28.60;;;;;;5060287;28;20286;-70
2021/05/11 12:29:18;;;;;;;2.65;2.45;;;35.80;28.90;;;;;;5063506;28;20300;-73
2021/05/11 12:31:46;;;;;;;3.05;2.60;;;35.30;29.40;;;;;;5061402;28;20211;-73
2021/05/11 12:34:14;;;;;;;11.88;2.30;;;34.80;29.90;;;;;;5064312;28;20231;-69
2021/05/11 12:36:47;;;;;;;2.53;2.40;;;34.40;30.10;;;;;;5062908;28;20198;-69
2021/05/11 12:42:14;;;;;;;2.92;2.42;;;33.70;31.30;;;;;;4997453;28;20239;-69
2021/05/11 12:44:40;;;;;;;2.30;2.20;;;33.30;32.30;;;;;;4987721;28;20238;-69
2021/05/11 12:47:08;;;;;;;2.70;2.50;;;33.00;33.30;;;;;;5003780;28;20207;-69
2021/05/11 12:49:35;;;;;;;2.45;2.28;;;32.70;33.00;;;;;;5002066;28;20306;-69
2021/05/11 12:52:04;;;;;;;2.75;2.20;;;32.40;33.60;;;;;;5003881;28;20294;-70
2021/05/11 12:54:35;;;;;;;2.78;2.20;;;32.20;34.80;;;;;;5000200;28;20474;-70
2021/05/11 12:57:12;;;;;;;2.67;2.38;;;31.90;34.40;;;;;;5002734;28;20292;-70
2021/05/11 12:59:46;;;;;;;3.88;2.00;;;31.70;34.80;;;;;;4999887;28;20342;-70
2021/05/11 13:02:29;;;;;;;2.10;1.90;;;31.50;35.40;;;;;;5002365;28;20216;-70
2021/05/11 13:05:14;;;;;;;2.35;2.15;;;31.40;35.90;;;;;;5003471;28;20629;-70
2021/05/11 13:16:16;;;;;;;1.73;1.63;;;30.90;36.30;;;;;;4999098;28;20427;-71
2021/05/11 13:21:38;;;;;;;4.43;2.10;;;30.80;36.60;;;;;;5063822;28;20683;-70
2021/05/11 13:26:56;;;;;;;2.10;2.00;;;30.50;36.90;;;;;;5063849;28;20197;-71
2021/05/11 13:29:34;;;;;;;2.38;1.95;;;30.30;37.00;;;;;;5060407;28;20696;-70
2021/05/11 13:32:04;;;;;;;1.95;1.85;;;30.30;37.30;;;;;;5059268;28;20504;-71
2021/05/11 13:34:34;;;;;;;4.07;1.98;;;30.20;37.60;;;;;;5061383;28;20220;-71
2021/05/11 13:37:00;;;;;;;3.08;2.10;;;30.10;37.70;;;;;;5063596;28;20192;-72
2021/05/11 13:39:27;;;;;;;1.88;1.77;;;30.00;37.90;;;;;;5050493;28;20200;-72
2021/05/11 13:41:54;;;;;;;2.08;1.95;;;29.90;38.00;;;;;;5064306;28;20276;-71
2021/05/11 13:44:21;;;;;;;4.72;2.47;;;29.80;38.10;;;;;;5065143;28;20221;-72
2021/05/11 13:46:47;;;;;;;3.97;2.22;;;29.70;38.20;;;;;;5056138;28;20201;-70
2021/05/11 13:49:17;;;;;;;2.75;2.10;;;29.60;38.40;;;;;;5060163;28;20229;-70
2021/05/11 13:51:43;;;;;;;4.28;2.00;;;29.50;38.70;;;;;;5052530;28;20406;-72
2021/05/11 13:54:12;;;;;;;2.50;2.17;;;29.50;38.80;;;;;;5062404;28;20608;-72
2021/05/11 13:56:49;;;;;;;2.28;2.08;;;29.50;39.10;;;;;;5063976;28;20228;-72
2021/05/11 14:04:45;;;;;;;3.35;2.50;;;29.40;39.20;;;;;;5058667;28;20231;-72
2021/05/11 14:07:12;;;;;;;2.15;2.05;;;29.30;39.00;;;;;;5060453;28;20202;-72
2021/05/11 14:09:38;;;;;;;5.32;1.77;;;29.20;39.10;;;;;;5062935;28;20213;-71
2021/05/11 14:12:06;;;;;;;3.53;2.05;;;29.20;39.90;;;;;;5062642;28;20280;-74
2021/05/11 14:14:33;;;;;;;2.88;2.22;;;29.20;39.50;;;;;;5064245;28;20256;-74
2021/05/11 14:17:00;;;;;;;8.30;2.42;;;29.10;39.70;;;;;;5092516;28;20617;-70
2021/05/11 14:19:30;;;;;;;3.72;1.90;;;29.10;39.50;;;;;;5067700;28;20496;-70
2021/05/11 14:21:57;;;;;;;2.28;2.05;;;29.10;39.40;;;;;;5061301;28;20197;-70
2021/05/11 14:24:23;;;;;;;3.92;2.30;;;29.00;39.70;;;;;;5066995;28;20190;-70
2021/05/11 14:26:50;;;;;;;4.97;2.10;;;29.00;40.10;;;;;;5063007;28;20201;-71
2021/05/11 14:29:16;;;;;;;5.43;2.53;;;29.00;40.20;;;;;;5064730;28;20260;-70
2021/05/11 14:31:44;;;;;;;6.47;2.00;;;28.90;40.20;;;;;;5063490;28;20545;-70
2021/05/11 14:34:10;;;;;;;5.75;2.00;;;28.80;40.90;;;;;;5061439;28;20201;-71
2021/05/11 14:36:37;;;;;;;2.63;2.13;;;28.80;40.30;;;;;;5067089;28;20198;-68
2021/05/11 14:39:05;;;;;;;2.35;1.98;;;28.70;40.00;;;;;;5065844;28;20338;-69
2021/05/11 14:41:31;;;;;;;2.50;1.90;;;28.80;40.00;;;;;;5062998;28;20273;-69
2021/05/11 14:43:59;;;;;;;3.92;2.00;;;28.70;40.00;;;;;;5065648;28;20229;-69
2021/05/11 14:46:26;;;;;;;5.22;2.13;;;28.70;40.20;;;;;;5062660;28;20219;-69
2021/05/11 14:48:53;;;;;;;3.00;1.80;;;28.70;40.30;;;;;;5064526;28;20217;-70
2021/05/11 14:51:20;;;;;;;1.70;1.60;;;28.70;40.40;;;;;;5090750;28;20201;-73
2021/05/11 14:53:47;;;;;;;2.17;1.75;;;28.70;40.50;;;;;;5062509;28;20240;-72
2021/05/11 14:56:14;;;;;;;1.60;1.50;;;28.70;40.20;;;;;;5078565;28;20270;-72
2021/05/11 14:58:41;;;;;;;2.28;2.10;;;28.70;40.30;;;;;;5065380;28;20193;-72
2021/05/11 15:01:08;;;;;;;2.42;2.10;;;28.70;40.40;;;;;;5062070;28;20198;-74
2021/05/11 15:03:35;;;;;;;2.00;1.73;;;28.70;40.40;;;;;;5061648;28;20193;-73
2021/05/11 15:06:03;;;;;;;2.55;2.20;;;28.70;40.40;;;;;;5063622;28;20197;-72
2021/05/11 15:08:29;;;;;;;3.20;2.22;;;28.70;40.50;;;;;;5064890;28;20217;-73
2021/05/11 15:10:56;;;;;;;4.47;2.25;;;28.70;40.70;;;;;;5066032;28;20197;-72
2021/05/11 15:13:23;;;;;;;2.65;2.17;;;28.70;40.70;;;;;;5065734;28;20207;-72
2021/05/11 15:15:51;;;;;;;2.30;1.85;;;28.70;40.70;;;;;;5062718;28;20669;-72
2021/05/11 15:18:18;;;;;;;2.38;1.98;;;28.70;40.80;;;;;;5080672;28;20232;-73
2021/05/11 15:20:45;;;;;;;3.05;1.90;;;28.80;41.00;;;;;;5067091;28;20227;-72
2021/05/11 15:23:13;;;;;;;2.10;1.90;;;28.60;41.10;;;;;;5064811;28;20657;-70
2021/05/11 15:25:40;;;;;;;2.03;1.83;;;28.60;41.40;;;;;;5063885;28;20212;-73
2021/05/11 15:28:06;;;;;;;2.13;1.95;;;28.60;41.50;;;;;;5060715;28;20304;-72
2021/05/11 15:30:35;;;;;;;2.15;1.92;;;28.50;41.60;;;;;;5059858;28;20197;-73
2021/05/11 15:33:03;;;;;;;2.20;1.80;;;28.50;42.00;;;;;;5066187;28;20192;-74
2021/05/11 15:35:31;;;;;;;5.93;2.00;;;28.50;42.30;;;;;;5063511;28;20284;-71
2021/05/11 15:37:59;;;;;;;2.05;1.90;;;28.40;42.60;;;;;;5057162;28;20312;-72
2021/05/11 15:40:28;;;;;;;6.40;2.38;;;28.40;42.80;;;;;;5056066;28;20663;-71
2021/05/11 15:42:56;;;;;;;2.40;2.20;;;28.40;43.00;;;;;;5063664;28;20675;-70
2021/05/11 15:45:24;;;;;;;2.28;2.10;;;28.30;42.90;;;;;;5061550;28;20644;-71
2021/05/11 15:47:53;;;;;;;4.38;2.20;;;28.30;42.90;;;;;;5064316;28;20197;-71
2021/05/11 15:50:29;;;;;;;5.82;2.20;;;28.30;43.00;;;;;;5063316;28;20193;-72
2021/05/11 15:52:56;;;;;;;2.10;1.90;;;28.20;43.00;;;;;;5059965;28;20255;-71
2021/05/11 15:55:24;;;;;;;2.20;2.10;;;28.20;43.00;;;;;;5064057;28;20197;-70
2021/05/11 15:57:51;;;;;;;2.10;1.95;;;28.20;43.20;;;;;;5062853;28;20228;-70
2021/05/11 16:00:19;;;;;;;3.53;1.88;;;28.10;43.20;;;;;;5061748;28;20735;-71
2021/05/11 16:02:46;;;;;;;3.78;1.90;;;28.20;43.30;;;;;;5058719;28;20758;-70
2021/05/11 16:05:13;;;;;;;2.80;2.05;;;28.10;43.40;;;;;;5064601;28;20388;-70
2021/05/11 16:07:40;;;;;;;2.97;1.70;;;28.10;43.50;;;;;;5061863;28;20679;-70
2021/05/11 16:10:09;;;;;;;5.65;2.00;;;28.10;43.90;;;;;;5060905;28;20217;-72
2021/05/11 16:12:36;;;;;;;1.90;1.80;;;28.10;43.90;;;;;;5060097;28;20675;-72
2021/05/11 16:15:08;;;;;;;2.08;1.85;;;28.00;43.80;;;;;;5059742;28;20206;-71
2021/05/11 16:17:35;;;;;;;2.00;1.77;;;28.00;43.90;;;;;;5063454;28;20190;-71
2021/05/11 16:20:02;;;;;;;2.78;2.08;;;28.00;44.00;;;;;;5059262;28;20714;-70
2021/05/11 16:22:28;;;;;;;3.83;2.00;;;28.00;44.00;;;;;;5056009;28;20280;-72
2021/05/11 16:24:55;;;;;;;3.80;2.10;;;27.90;44.00;;;;;;5055811;28;20194;-71
2021/05/11 16:27:21;;;;;;;3.92;2.20;;;27.90;44.10;;;;;;5058501;28;20204;-72
2021/05/11 16:29:48;;;;;;;2.15;1.95;;;27.90;44.20;;;;;;5060854;28;20307;-70
2021/05/11 16:32:16;;;;;;;2.35;1.83;;;27.80;44.30;;;;;;5050790;28;20339;-72